Terminal Aerodrome Forecast
Issued by NWS

Home | Current Version | Previous Version | Text Only | Print | Product List | Glossary On
Versions: 1 2 3 4 5 6 7 8 9 10 11 12 13 14 15 16 17 18 19 20 21 22 23 24 25 26 27 28 29 30 31 32 33 34 35 36 37 38 39 40 41 42 43 44 45 46 47 48 49 50
000
FTAK31 PAFA 010540
TAFAQT
TAF
PAQT 010540Z 0106/0206 26041G50KT 1/4SM SN FG BLSN VV002
     FM011000 25028G35KT 1/4SM FG BLSN VCSH OVC002
     FM011800 24026G32KT 1/2SM BLSN BKN050 BKN250
     FM012100 23020G28KT 2SM BR BLSN BKN250
     FM020000 23018KT 6SM BLSN BR SCT015 BKN250=

USA.gov is the U.S. government's official web portal to all federal, state and local government web resources and services.